createdAt,value
2022-07-31T00:00:24.243Z,45.25
2022-07-31T00:02:52.274Z,45.12
2022-07-31T00:05:20.258Z,45.13
2022-07-31T00:07:49.587Z,45.24
2022-07-31T00:10:17.601Z,45.24
2022-07-31T00:12:46.900Z,45.28
2022-07-31T00:15:14.892Z,45.17
2022-07-31T00:17:43.518Z,45.36
2022-07-31T00:20:14.149Z,45.42
2022-07-31T00:22:42.173Z,45.36
2022-07-31T00:25:11.943Z,45.25
2022-07-31T00:27:40.106Z,45.27
2022-07-31T00:30:08.707Z,45.40
2022-07-31T00:32:36.874Z,45.25
2022-07-31T00:35:05.419Z,45.32
2022-07-31T00:37:33.778Z,45.44
2022-07-31T00:40:01.712Z,45.42
2022-07-31T00:42:31.131Z,45.33
2022-07-31T00:44:59.164Z,45.28
2022-07-31T00:47:27.307Z,45.22
2022-07-31T00:49:55.352Z,45.29
2022-07-31T00:52:23.396Z,45.28
2022-07-31T00:54:51.350Z,45.24
2022-07-31T00:57:19.371Z,45.29
2022-07-31T00:59:48.735Z,45.41
2022-07-31T01:02:16.737Z,45.16
2022-07-31T01:04:44.682Z,45.27
2022-07-31T01:07:13.947Z,45.23
2022-07-31T01:09:42.596Z,45.40
2022-07-31T01:12:14.222Z,45.31
2022-07-31T01:14:51.148Z,45.20
2022-07-31T01:17:19.123Z,45.34
2022-07-31T01:19:47.417Z,45.23
2022-07-31T01:22:34.932Z,45.44
2022-07-31T01:25:08.283Z,45.08
2022-07-31T01:27:49.214Z,45.30
2022-07-31T01:30:19.408Z,45.00
2022-07-31T01:32:49.511Z,45.34
2022-07-31T01:35:19.052Z,45.30
2022-07-31T01:37:48.622Z,45.20
2022-07-31T01:40:17.609Z,45.22
2022-07-31T01:42:45.913Z,45.01
2022-07-31T01:45:14.615Z,45.08
2022-07-31T01:47:43.958Z,45.03
2022-07-31T01:50:43.333Z,45.07
2022-07-31T01:53:00.970Z,45.09
2022-07-31T01:55:28.930Z,45.07
2022-07-31T01:57:57.055Z,45.09
2022-07-31T02:00:34.517Z,45.05
2022-07-31T02:03:09.779Z,45.10
2022-07-31T02:05:37.932Z,45.01
2022-07-31T02:08:06.571Z,44.99
2022-07-31T02:10:34.520Z,44.78
2022-07-31T02:13:02.854Z,45.07
2022-07-31T02:15:30.878Z,44.93
2022-07-31T02:17:58.829Z,44.93
2022-07-31T02:20:28.302Z,44.82
2022-07-31T02:22:56.303Z,45.08
2022-07-31T02:25:24.442Z,44.98
2022-07-31T02:27:58.305Z,44.98
2022-07-31T02:30:27.752Z,45.03
2022-07-31T02:33:08.900Z,45.00
2022-07-31T02:35:38.894Z,44.79
2022-07-31T02:38:22.993Z,44.79
2022-07-31T02:40:51.833Z,44.92
2022-07-31T02:43:20.127Z,44.60
2022-07-31T02:45:48.371Z,44.65
2022-07-31T02:48:16.451Z,44.62
2022-07-31T02:50:46.077Z,44.88
2022-07-31T02:53:14.280Z,44.66
2022-07-31T02:55:42.377Z,44.74
2022-07-31T02:58:10.592Z,44.69
2022-07-31T03:00:38.629Z,44.64
2022-07-31T03:03:06.787Z,44.48
2022-07-31T03:05:34.931Z,44.62
2022-07-31T03:08:04.487Z,44.55
2022-07-31T03:10:32.597Z,44.54
2022-07-31T03:13:00.724Z,44.69
2022-07-31T03:15:29.035Z,44.38
2022-07-31T03:17:56.969Z,44.37
2022-07-31T03:20:26.051Z,44.39
2022-07-31T03:22:54.022Z,44.36
2022-07-31T03:25:23.333Z,44.48
2022-07-31T03:27:52.331Z,44.18
2022-07-31T03:30:25.198Z,44.39
2022-07-31T03:32:53.389Z,44.46
2022-07-31T03:35:21.343Z,44.14
2022-07-31T03:37:49.615Z,44.30
2022-07-31T03:40:17.599Z,44.38
2022-07-31T03:42:46.972Z,44.30
2022-07-31T03:45:15.170Z,44.15
2022-07-31T03:47:43.123Z,44.20
2022-07-31T03:50:11.164Z,44.44
2022-07-31T03:52:39.111Z,44.19
2022-07-31T03:55:08.227Z,44.33
2022-07-31T03:57:36.280Z,44.28
2022-07-31T04:00:12.363Z,44.07
2022-07-31T04:02:44.705Z,44.24
2022-07-31T04:05:12.732Z,44.01
2022-07-31T04:07:40.694Z,44.07
2022-07-31T04:10:09.721Z,43.94
2022-07-31T04:12:37.844Z,44.06
2022-07-31T04:15:08.249Z,43.90
2022-07-31T04:17:37.359Z,43.91
2022-07-31T04:20:06.172Z,43.90
2022-07-31T04:22:34.128Z,43.95
2022-07-31T04:25:03.496Z,43.84
2022-07-31T04:27:31.417Z,43.92
2022-07-31T04:29:59.424Z,43.93
2022-07-31T04:32:29.060Z,43.87
2022-07-31T04:34:57.037Z,44.03
2022-07-31T04:37:24.992Z,43.72
2022-07-31T04:39:52.920Z,43.87
2022-07-31T04:42:20.846Z,43.68
2022-07-31T04:44:49.064Z,44.00
2022-07-31T04:47:16.999Z,43.66
2022-07-31T04:49:46.372Z,43.94
2022-07-31T04:52:14.325Z,43.75
2022-07-31T04:54:42.286Z,43.84
2022-07-31T04:57:10.269Z,43.68
2022-07-31T05:00:00.678Z,43.71
2022-07-31T05:02:26.294Z,43.69
2022-07-31T05:04:56.657Z,43.80
2022-07-31T05:07:26.553Z,43.59
2022-07-31T05:09:57.087Z,43.59
2022-07-31T05:12:25.113Z,43.41
2022-07-31T05:14:54.508Z,43.46
2022-07-31T05:17:22.488Z,43.71
2022-07-31T05:19:50.454Z,43.59
2022-07-31T05:22:19.833Z,43.75
2022-07-31T05:24:47.792Z,43.79
2022-07-31T05:27:15.798Z,43.53
2022-07-31T05:29:43.789Z,43.49
2022-07-31T05:32:12.220Z,43.81
2022-07-31T05:34:40.412Z,43.76
2022-07-31T05:37:08.629Z,43.60
2022-07-31T05:39:37.967Z,43.49
2022-07-31T05:42:06.772Z,43.47
2022-07-31T05:44:35.067Z,43.63
2022-07-31T05:47:03.056Z,43.59
2022-07-31T05:49:31.090Z,43.51
2022-07-31T05:51:59.102Z,43.48
2022-07-31T05:54:27.041Z,43.44
2022-07-31T05:56:56.449Z,43.51
2022-07-31T05:59:24.775Z,43.57
2022-07-31T06:01:52.793Z,43.59
2022-07-31T06:04:20.860Z,43.55
2022-07-31T06:06:48.782Z,43.47
2022-07-31T06:09:16.829Z,43.50
2022-07-31T06:11:44.876Z,43.32
2022-07-31T06:14:14.293Z,43.66
2022-07-31T06:16:42.245Z,43.48
2022-07-31T06:19:10.212Z,43.39
2022-07-31T06:21:38.159Z,43.35
2022-07-31T06:24:06.947Z,43.46
2022-07-31T06:26:36.968Z,43.43
2022-07-31T06:29:05.199Z,43.44
2022-07-31T06:31:34.599Z,43.51
2022-07-31T06:34:02.542Z,43.52
2022-07-31T06:36:30.532Z,43.53
2022-07-31T06:38:58.535Z,43.18
2022-07-31T06:41:43.975Z,43.39
2022-07-31T06:44:11.973Z,43.22
2022-07-31T06:46:49.278Z,43.04
2022-07-31T06:49:17.720Z,43.17
2022-07-31T06:51:45.716Z,43.24
2022-07-31T06:54:13.708Z,43.27
2022-07-31T06:56:41.713Z,43.34
2022-07-31T06:59:09.686Z,43.08
2022-07-31T07:01:37.710Z,43.20
2022-07-31T07:04:07.214Z,43.32
2022-07-31T07:06:35.590Z,43.15
2022-07-31T07:09:03.587Z,43.19
2022-07-31T07:11:31.568Z,42.93
2022-07-31T07:13:59.560Z,43.16
2022-07-31T07:16:27.500Z,43.31
2022-07-31T07:18:55.953Z,42.96
2022-07-31T07:21:25.628Z,43.29
2022-07-31T07:23:53.628Z,43.03
2022-07-31T07:26:21.613Z,43.20
2022-07-31T07:28:49.571Z,42.94
2022-07-31T07:31:17.583Z,43.23
2022-07-31T07:33:45.828Z,43.05
2022-07-31T07:36:23.223Z,43.09
2022-07-31T07:38:55.132Z,43.37
2022-07-31T07:41:24.065Z,43.09
2022-07-31T07:43:52.701Z,43.04
2022-07-31T07:46:21.788Z,42.99
2022-07-31T07:48:51.110Z,43.08
2022-07-31T07:51:19.527Z,43.14
2022-07-31T07:53:47.763Z,42.99
2022-07-31T07:56:17.165Z,42.81
2022-07-31T07:58:45.208Z,42.98
2022-07-31T08:01:13.464Z,43.04
2022-07-31T08:03:50.902Z,43.06
2022-07-31T08:06:20.913Z,42.94
2022-07-31T08:08:48.955Z,43.10
2022-07-31T08:11:18.319Z,43.13
2022-07-31T08:13:51.225Z,43.06
2022-07-31T08:16:20.320Z,42.96
2022-07-31T08:18:48.437Z,42.89
2022-07-31T08:21:16.390Z,43.07
2022-07-31T08:23:44.393Z,42.61
2022-07-31T08:26:13.122Z,42.89
2022-07-31T08:28:49.981Z,42.87
2022-07-31T08:31:19.317Z,42.74
2022-07-31T08:33:47.528Z,42.58
2022-07-31T08:36:15.487Z,42.55
2022-07-31T08:38:43.468Z,42.64
2022-07-31T08:41:13.162Z,42.60
2022-07-31T08:44:01.994Z,42.65
2022-07-31T08:46:31.249Z,42.54
2022-07-31T08:48:59.344Z,42.33
2022-07-31T08:51:27.431Z,42.34
2022-07-31T08:53:57.285Z,42.34
2022-07-31T08:56:25.749Z,42.19
2022-07-31T08:58:53.752Z,42.37
2022-07-31T09:01:21.779Z,42.21
2022-07-31T09:03:51.234Z,42.16
2022-07-31T09:06:19.210Z,42.26
2022-07-31T09:08:47.254Z,42.19
2022-07-31T09:11:15.798Z,42.48
2022-07-31T09:14:02.213Z,42.07
2022-07-31T09:16:31.542Z,42.26
2022-07-31T09:19:01.701Z,42.15
2022-07-31T09:21:39.757Z,42.12
2022-07-31T09:24:10.211Z,41.98
2022-07-31T09:26:40.886Z,42.13
2022-07-31T09:29:11.916Z,41.65
2022-07-31T09:31:40.150Z,41.65
2022-07-31T09:34:09.535Z,41.82
2022-07-31T09:36:37.554Z,41.54
2022-07-31T09:39:14.355Z,41.54
2022-07-31T09:42:01.322Z,41.50
2022-07-31T09:44:42.543Z,41.83
2022-07-31T09:47:21.895Z,41.45
2022-07-31T09:49:55.705Z,41.58
2022-07-31T09:52:24.219Z,41.24
2022-07-31T09:55:01.784Z,41.09
2022-07-31T09:57:29.785Z,41.08
2022-07-31T09:59:57.824Z,41.04
2022-07-31T10:02:26.663Z,40.66
2022-07-31T10:04:58.964Z,40.88
2022-07-31T10:07:32.717Z,40.78
2022-07-31T10:10:00.894Z,40.52
2022-07-31T10:12:30.764Z,40.45
2022-07-31T10:15:03.785Z,40.24
2022-07-31T10:17:35.964Z,40.46
2022-07-31T10:20:07.475Z,40.50
2022-07-31T10:22:37.121Z,40.51
2022-07-31T10:25:05.354Z,40.36
2022-07-31T10:27:33.347Z,40.81
2022-07-31T10:30:08.520Z,40.82
2022-07-31T10:32:36.487Z,40.60
2022-07-31T10:35:07.528Z,40.51
2022-07-31T10:37:37.965Z,40.63
2022-07-31T10:40:10.173Z,40.50
2022-07-31T10:42:42.586Z,40.45
2022-07-31T10:45:11.415Z,40.67
2022-07-31T10:47:39.400Z,40.55
2022-07-31T10:50:23.672Z,40.06
2022-07-31T10:52:51.628Z,40.32
2022-07-31T10:55:22.250Z,40.06
2022-07-31T10:57:56.348Z,40.03
2022-07-31T11:00:29.748Z,40.30
2022-07-31T11:02:58.239Z,40.17
2022-07-31T11:05:28.175Z,39.93
2022-07-31T11:08:01.569Z,39.55
2022-07-31T11:10:29.592Z,39.10
2022-07-31T11:13:01.106Z,39.22
2022-07-31T11:15:30.100Z,39.08
2022-07-31T11:18:21.040Z,39.08
2022-07-31T11:20:48.091Z,38.77
2022-07-31T11:23:16.862Z,38.80
2022-07-31T11:25:46.147Z,38.16
2022-07-31T11:28:16.084Z,38.20
2022-07-31T11:30:51.245Z,38.34
2022-07-31T11:33:30.137Z,37.87
2022-07-31T11:36:12.347Z,38.19
2022-07-31T11:38:40.649Z,37.90
2022-07-31T11:41:09.612Z,37.77
2022-07-31T11:43:39.631Z,37.72
2022-07-31T11:46:07.625Z,37.44
2022-07-31T11:48:43.527Z,37.47
2022-07-31T11:51:19.633Z,37.54
2022-07-31T11:53:56.623Z,37.42
2022-07-31T11:56:26.368Z,37.29
2022-07-31T11:58:54.979Z,37.04
2022-07-31T12:01:25.742Z,36.87
2022-07-31T12:03:53.713Z,36.90
2022-07-31T12:06:23.304Z,36.98
2022-07-31T12:08:53.122Z,36.43
2022-07-31T12:11:21.212Z,36.52
2022-07-31T12:13:49.255Z,36.61
2022-07-31T12:16:18.658Z,36.77
2022-07-31T12:18:47.965Z,36.54
2022-07-31T12:21:16.072Z,36.33
2022-07-31T12:23:46.717Z,36.40
2022-07-31T12:26:22.484Z,36.58
2022-07-31T12:28:58.324Z,36.84
2022-07-31T12:31:26.340Z,37.72
2022-07-31T12:33:54.476Z,37.53
2022-07-31T12:36:22.744Z,37.25
2022-07-31T12:39:01.036Z,36.91
2022-07-31T12:41:29.276Z,36.76
2022-07-31T12:43:57.250Z,36.98
2022-07-31T12:46:36.776Z,36.70
2022-07-31T12:49:05.087Z,37.02
2022-07-31T12:51:46.313Z,37.07
2022-07-31T12:54:16.352Z,36.85
2022-07-31T12:56:44.932Z,36.86
2022-07-31T12:59:12.911Z,36.57
2022-07-31T13:01:41.016Z,36.63
2022-07-31T13:04:18.700Z,36.72
2022-07-31T13:06:48.652Z,36.73
2022-07-31T13:09:18.227Z,36.35
2022-07-31T13:11:48.641Z,36.34
2022-07-31T13:14:17.549Z,36.52
2022-07-31T13:16:45.810Z,36.43
2022-07-31T13:19:14.085Z,36.65
2022-07-31T13:21:49.184Z,36.50
2022-07-31T13:24:19.585Z,36.73
2022-07-31T13:26:47.836Z,36.24
2022-07-31T13:29:15.814Z,36.22
2022-07-31T13:31:43.803Z,36.20
2022-07-31T13:34:11.911Z,36.32
2022-07-31T13:36:40.136Z,36.19
2022-07-31T13:39:08.282Z,36.47
2022-07-31T13:41:39.199Z,36.13
2022-07-31T13:44:07.695Z,36.13
2022-07-31T13:46:35.757Z,35.95
2022-07-31T13:49:08.306Z,35.76
2022-07-31T13:51:36.789Z,35.87
2022-07-31T13:54:04.901Z,35.50
2022-07-31T13:56:39.478Z,35.44
2022-07-31T13:59:13.008Z,35.49
2022-07-31T14:02:04.652Z,35.15
2022-07-31T14:04:32.962Z,35.24
2022-07-31T14:07:07.389Z,35.29
2022-07-31T14:09:36.037Z,35.01
2022-07-31T14:12:04.957Z,35.25
2022-07-31T14:14:35.090Z,35.32
2022-07-31T14:17:03.046Z,35.29
2022-07-31T14:19:44.103Z,35.29
2022-07-31T14:22:13.228Z,35.19
2022-07-31T14:24:41.483Z,35.33
2022-07-31T14:27:17.264Z,35.58
2022-07-31T14:29:46.749Z,35.46
2022-07-31T14:32:14.721Z,35.98
2022-07-31T14:34:42.684Z,35.60
2022-07-31T14:37:10.646Z,35.83
2022-07-31T14:39:42.630Z,35.86
2022-07-31T14:42:11.229Z,35.92
2022-07-31T14:44:41.859Z,35.84
2022-07-31T14:47:11.631Z,35.78
2022-07-31T14:50:07.017Z,35.54
2022-07-31T14:52:27.708Z,35.73
2022-07-31T14:54:55.833Z,35.88
2022-07-31T14:57:23.851Z,35.88
2022-07-31T14:59:52.186Z,35.91
2022-07-31T15:02:22.715Z,35.29
2022-07-31T15:04:51.038Z,35.85
2022-07-31T15:07:36.670Z,36.02
2022-07-31T15:10:07.742Z,35.38
2022-07-31T15:12:35.770Z,35.50
2022-07-31T15:15:03.995Z,35.47
2022-07-31T15:17:33.365Z,34.88
2022-07-31T15:20:01.300Z,34.98
2022-07-31T15:22:29.298Z,34.68
2022-07-31T15:24:57.215Z,34.57
2022-07-31T15:27:25.751Z,34.75
2022-07-31T15:30:04.406Z,34.51
2022-07-31T15:32:37.004Z,34.27
2022-07-31T15:35:05.481Z,34.11
2022-07-31T15:37:35.226Z,34.12
2022-07-31T15:40:04.850Z,34.35
2022-07-31T15:42:32.949Z,34.24
2022-07-31T15:45:00.926Z,34.56
2022-07-31T15:47:28.905Z,34.95
2022-07-31T15:49:58.216Z,34.92
2022-07-31T15:52:26.358Z,34.85
2022-07-31T15:54:54.399Z,35.30
2022-07-31T15:57:22.446Z,34.98
2022-07-31T15:59:50.477Z,35.28
2022-07-31T16:02:18.421Z,34.84
2022-07-31T16:04:53.393Z,35.07
2022-07-31T16:08:30.189Z,35.34
2022-07-31T16:10:16.169Z,35.06
2022-07-31T16:12:45.395Z,35.13
2022-07-31T16:15:13.627Z,34.92
2022-07-31T16:17:41.697Z,34.88
2022-07-31T16:20:11.133Z,34.72
2022-07-31T16:22:41.307Z,34.83
2022-07-31T16:25:09.862Z,34.63
2022-07-31T16:27:38.070Z,34.48
2022-07-31T16:30:06.819Z,34.26
2022-07-31T16:32:34.885Z,34.30
2022-07-31T16:35:02.931Z,34.06
2022-07-31T16:37:51.487Z,33.86
2022-07-31T16:40:29.131Z,33.99
2022-07-31T16:43:00.868Z,34.12
2022-07-31T16:45:29.321Z,33.72
2022-07-31T16:47:57.337Z,33.63
2022-07-31T16:50:25.498Z,33.70
2022-07-31T16:52:55.019Z,33.44
2022-07-31T16:55:51.775Z,33.82
2022-07-31T16:58:13.923Z,34.07
2022-07-31T17:00:41.988Z,34.22
2022-07-31T17:03:59.565Z,34.23
2022-07-31T17:05:58.067Z,34.62
2022-07-31T17:08:26.090Z,34.60
2022-07-31T17:10:55.477Z,34.86
2022-07-31T17:13:23.719Z,34.64
2022-07-31T17:15:51.751Z,34.64
2022-07-31T17:18:24.930Z,34.78
2022-07-31T17:20:55.685Z,34.68
2022-07-31T17:23:42.767Z,34.49
2022-07-31T17:26:20.784Z,34.61
2022-07-31T17:28:49.668Z,34.71
2022-07-31T17:31:17.646Z,34.50
2022-07-31T17:33:49.597Z,34.66
2022-07-31T17:36:28.054Z,34.27
2022-07-31T17:38:56.042Z,34.54
2022-07-31T17:41:26.009Z,34.34
2022-07-31T17:43:54.557Z,34.00
2022-07-31T17:47:07.314Z,33.80
2022-07-31T17:49:11.683Z,33.83
2022-07-31T17:51:58.759Z,33.53
2022-07-31T17:54:28.154Z,33.70
2022-07-31T17:56:57.547Z,33.94
2022-07-31T17:59:25.752Z,33.28
2022-07-31T18:01:59.756Z,33.32
2022-07-31T18:04:28.003Z,33.12
2022-07-31T18:06:56.036Z,33.13
2022-07-31T18:09:24.207Z,32.97
2022-07-31T18:11:52.289Z,32.78
2022-07-31T18:14:24.260Z,32.74
2022-07-31T18:16:52.824Z,32.79
2022-07-31T18:19:21.659Z,33.63
2022-07-31T18:21:49.748Z,33.23
2022-07-31T18:24:17.762Z,33.84
2022-07-31T18:26:45.850Z,33.94
2022-07-31T18:29:13.784Z,34.08
2022-07-31T18:31:43.148Z,34.31
2022-07-31T18:34:11.384Z,34.02
2022-07-31T18:36:40.232Z,33.72
2022-07-31T18:39:08.427Z,33.72
2022-07-31T18:41:37.315Z,33.70
2022-07-31T18:44:05.665Z,33.78
2022-07-31T18:46:33.604Z,33.62
2022-07-31T18:49:03.011Z,33.68
2022-07-31T18:51:31.099Z,33.70
2022-07-31T18:53:59.113Z,33.38
2022-07-31T18:56:27.362Z,33.53
2022-07-31T18:58:55.449Z,33.58
2022-07-31T19:01:25.561Z,33.54
2022-07-31T19:03:53.846Z,33.22
2022-07-31T19:06:23.803Z,33.28
2022-07-31T19:08:52.174Z,33.32
2022-07-31T19:11:20.301Z,32.96
2022-07-31T19:13:48.281Z,33.00
2022-07-31T19:16:17.644Z,33.23
2022-07-31T19:18:45.901Z,32.59
2022-07-31T19:21:41.511Z,32.99
2022-07-31T19:24:09.503Z,32.38
2022-07-31T19:26:37.756Z,32.60
2022-07-31T19:29:05.937Z,32.61
2022-07-31T19:31:34.056Z,32.45
2022-07-31T19:34:01.984Z,32.36
2022-07-31T19:36:30.017Z,32.23
2022-07-31T19:38:58.005Z,32.43
2022-07-31T19:41:27.385Z,32.60
2022-07-31T19:43:55.374Z,32.85
2022-07-31T19:46:23.308Z,33.46
2022-07-31T19:48:51.333Z,33.09
2022-07-31T19:51:19.384Z,32.96
2022-07-31T19:53:47.341Z,33.27
2022-07-31T19:56:20.430Z,33.37
2022-07-31T19:58:50.538Z,33.05
2022-07-31T20:01:20.039Z,33.39
2022-07-31T20:03:48.297Z,33.02
2022-07-31T20:06:16.362Z,32.86
2022-07-31T20:08:44.379Z,33.28
2022-07-31T20:11:12.448Z,33.32
2022-07-31T20:13:40.409Z,33.13
2022-07-31T20:16:09.779Z,33.18
2022-07-31T20:18:37.731Z,33.04
2022-07-31T20:21:07.239Z,33.16
2022-07-31T20:23:38.177Z,33.27
2022-07-31T20:26:06.426Z,32.97
2022-07-31T20:28:34.603Z,33.10
2022-07-31T20:31:02.663Z,33.20
2022-07-31T20:33:32.007Z,33.03
2022-07-31T20:35:59.981Z,33.06
2022-07-31T20:38:27.990Z,33.00
2022-07-31T20:40:56.226Z,33.04
2022-07-31T20:43:24.597Z,33.08
2022-07-31T20:45:52.576Z,32.74
2022-07-31T20:48:22.021Z,32.95
2022-07-31T20:50:51.407Z,33.13
2022-07-31T20:53:19.550Z,32.73
2022-07-31T20:55:49.856Z,32.88
2022-07-31T20:58:18.105Z,33.26
2022-07-31T21:00:47.520Z,32.82
2022-07-31T21:03:15.890Z,33.22
2022-07-31T21:05:43.969Z,33.25
2022-07-31T21:08:13.422Z,33.36
2022-07-31T21:10:41.451Z,33.41
2022-07-31T21:13:09.468Z,33.55
2022-07-31T21:15:42.058Z,33.28
2022-07-31T21:18:13.294Z,33.64
2022-07-31T21:20:50.951Z,33.66
2022-07-31T21:23:22.950Z,33.23
2022-07-31T21:25:51.334Z,33.35
2022-07-31T21:28:19.695Z,33.36
2022-07-31T21:30:48.078Z,33.43
2022-07-31T21:33:16.231Z,33.63
2022-07-31T21:35:44.991Z,33.28
2022-07-31T21:38:15.249Z,33.28
2022-07-31T21:40:44.837Z,33.58
2022-07-31T21:43:16.909Z,33.55
2022-07-31T21:45:55.558Z,33.62
2022-07-31T21:48:26.320Z,33.34
2022-07-31T21:50:54.457Z,33.49
2022-07-31T21:53:22.557Z,33.67
2022-07-31T21:55:51.902Z,33.62
2022-07-31T21:58:19.963Z,33.55
2022-07-31T22:00:48.013Z,33.37
2022-07-31T22:03:16.100Z,33.48
2022-07-31T22:06:01.270Z,33.56
2022-07-31T22:08:29.295Z,33.38
2022-07-31T22:10:58.683Z,33.45
2022-07-31T22:13:26.704Z,33.75
2022-07-31T22:16:00.058Z,33.56
2022-07-31T22:18:29.163Z,33.80
2022-07-31T22:20:57.725Z,33.76
2022-07-31T22:23:25.876Z,33.39
2022-07-31T22:25:54.258Z,33.77
2022-07-31T22:28:24.049Z,33.82
2022-07-31T22:30:52.138Z,33.67
2022-07-31T22:33:20.298Z,33.43
2022-07-31T22:35:58.616Z,33.74
2022-07-31T22:38:28.669Z,33.88
2022-07-31T22:40:56.702Z,33.81
2022-07-31T22:44:14.093Z,33.61
2022-07-31T22:46:14.326Z,33.92
2022-07-31T22:48:42.426Z,33.96
2022-07-31T22:51:12.908Z,33.81
2022-07-31T22:53:43.299Z,33.63
2022-07-31T22:56:11.344Z,33.70
2022-07-31T22:58:40.781Z,33.54
2022-07-31T23:01:08.799Z,33.70
2022-07-31T23:03:36.808Z,33.53
2022-07-31T23:06:31.249Z,33.93
2022-07-31T23:08:54.698Z,33.67
2022-07-31T23:11:23.508Z,33.63
2022-07-31T23:13:52.947Z,33.78
2022-07-31T23:16:21.329Z,33.55
2022-07-31T23:18:49.397Z,33.61
2022-07-31T23:21:17.426Z,33.66
2022-07-31T23:23:48.710Z,33.93
2022-07-31T23:26:18.064Z,33.89
2022-07-31T23:28:46.061Z,33.75
2022-07-31T23:31:15.455Z,33.71
2022-07-31T23:33:43.488Z,33.74
2022-07-31T23:36:11.522Z,33.53
2022-07-31T23:38:39.500Z,33.63
2022-07-31T23:41:07.476Z,33.79
2022-07-31T23:43:34.432Z,33.56
2022-07-31T23:46:02.431Z,33.71
2022-07-31T23:48:31.824Z,34.02
2022-07-31T23:50:59.896Z,33.90
2022-07-31T23:53:27.872Z,34.07
2022-07-31T23:55:55.859Z,34.07
2022-07-31T23:58:23.906Z,33.98
